Terminal Aerodrome Forecast
Issued by NWS

Home | Current Version | Previous Version | Text Only | Print | Product List | Glossary On
Versions: 1 2 3 4 5 6 7 8 9 10 11 12
799
FTUS44 KTSA 030535
TAFBVO
TAF
KBVO 030535Z 0306/0406 04005KT P6SM VCSH BKN050
      TEMPO 0318/0321 10006KT 5SM -RA BKN025
     FM032100 08004KT 4SM -RA BR BKN012
     FM040000 08005KT 2SM -RA BR BKN007=

USA.gov is the U.S. government's official web portal to all federal, state and local government web resources and services.